Flight Track Log - Related Links

Times and Time Zones

All times are in EDT time to prevent confusion due to time zone crossing. See the LYM531 flight status page for this flight to view local times or setup timezone preferences in your user account.

Time Position Orientation Groundspeed Altitude Reporting Facility
EDT Latitude Longitude Course Direction KTS MPH feet Rate Location/Type
Wed 10:07:38 AM 38.5553 -106.8703 63° Northeast 117 135 9,000  Level Denver Center
Wed 10:08:40 AM 38.5664 -106.8261 72° East 123 142 10,000 823 Climbing Denver Center
Wed 10:09:42 AM 38.5689 -106.7797 86° East 127 146 10,700 629 Climbing Denver Center
Wed 10:10:00 AM 38.5169 -106.7993 72° East  Level FlightAware Approximate
Wed 10:10:44 AM 38.5744 -106.7306 82° East 134 154 11,300  Level Denver Center
Wed 10:11:00 AM 38.5330 -106.7346 72° East  Level FlightAware Approximate
Wed 10:11:46 AM 38.5828 -106.6800 78° East 140 161 11,900  Level Denver Center
Wed 10:12:47 AM 38.6011 -106.6214 68° East 141 162 12,500 537 Climbing Denver Center
Wed 10:13:49 AM 38.6164 -106.5711 69° East 145 167 13,000 532 Climbing Denver Center
Wed 10:14:51 AM 38.6339 -106.5211 66° East 148 170 13,600 532 Climbing Denver Center
Wed 10:15:53 AM 38.6500 -106.4694 68° East 150 173 14,100 484 Climbing Denver Center
Wed 10:16:55 AM 38.6642 -106.4164 71° East 153 176 14,600 484 Climbing Denver Center
Wed 10:17:57 AM 38.6842 -106.3617 65° Northeast 162 186 15,100 629 Climbing Denver Center
Wed 10:18:59 AM 38.7108 -106.2964 62° Northeast 166 191 15,900 629 Climbing Denver Center
Wed 10:20:01 AM 38.7300 -106.2503 62° Northeast 167 192 16,400 629 Climbing Denver Center
Wed 10:21:03 AM 38.7547 -106.1781 66° East 178 205 17,200 387 Climbing Denver Center
Wed 10:22:05 AM 38.7753 -106.1114 68° East 179 206 17,200  Level Denver Center
Wed 10:23:07 AM 38.7969 -106.0533 64° Northeast 190 219 17,200  Level Denver Center
Wed 10:24:09 AM 38.8286 -105.9736 63° Northeast 210 242 17,200  Level Denver Center
Wed 10:25:11 AM 38.8578 -105.9028 62° Northeast 220 253 17,200 -242 Level Denver Center
Wed 10:26:13 AM 38.8992 -105.8347 52° Northeast 233 268 16,700 -387 Descending Denver Center
Wed 10:27:15 AM 38.9508 -105.7836 38° Northeast 244 281 16,400 -624 Descending Denver Center
Wed 10:28:18 AM 38.9956 -105.6969 56° Northeast 244 281 15,400 -672 Descending Denver Center
Wed 10:29:20 AM 39.0347 -105.6222 56° Northeast 248 285 15,000 -194 Descending Denver Center
Wed 10:30:22 AM 39.0708 -105.5544 56° Northeast 238 274 15,000  Level Denver Center
Wed 10:31:24 AM 39.0997 -105.4894 60° Northeast 218 251 15,000  Level Denver Center
Wed 10:32:27 AM 39.1378 -105.4228 54° Northeast 219 252 15,000  Level Denver Center
Wed 10:33:28 AM 39.1806 -105.3550 51° Northeast 223 257 15,000  Level Denver Center
Wed 10:34:30 AM 39.2192 -105.2947 50° Northeast 219 252 15,000  Level Denver Center
Wed 10:35:32 AM 39.2622 -105.2314 49° Northeast 218 251 15,000 -290 Level Denver Center
Wed 10:36:34 AM 39.3108 -105.1778 40° Northeast 225 259 14,400 -774 Descending Denver Center
Wed 10:37:36 AM 39.3581 -105.1058 50° Northeast 238 274 13,400 -726 Descending Denver Center
Wed 10:38:38 AM 39.4064 -105.0514 41° Northeast 236 272 12,900 -194 Descending Denver Center
Wed 10:39:40 AM 39.4519 -105.0086 36° Northeast 205 236 13,000 48 Climbing Denver Center
Wed 10:40:42 AM 39.4975 -104.9603 39° Northeast 200 230 13,000  Level Denver Center
Wed 10:41:44 AM 39.5417 -104.9178 37° Northeast 199 229 13,000 48 Level Denver Center
Wed 10:42:47 AM 39.5908 -104.8683 38° Northeast 205 236 13,100  Climbing Denver Center
Wed 10:43:49 AM 39.6364 -104.8247 36° Northeast 207 238 13,000 -48 Descending Denver Center
Wed 10:44:51 AM 39.6861 -104.7792 35° Northeast 207 238 13,000 -339 Level Denver Center
Wed 10:45:53 AM 39.7286 -104.7292 42° Northeast 216 249 12,300 -581 Descending Denver Center
Wed 10:46:55 AM 39.7339 -104.6408 86° East 226 260 11,800 -532 Descending Denver Center
Wed 10:47:57 AM 39.7317 -104.5578 92° East 230 265 11,200 -387 Descending Denver Center
Wed 10:48:59 AM 39.7378 -104.4706 85° East 230 265 11,000 -97 Descending Denver Center
Wed 10:50:01 AM 39.7828 -104.4792 352° North 173 199 11,000  Level Denver Center
Wed 10:51:03 AM 39.8333 -104.4903 350° North 172 198 11,000  Level Denver Center
Wed 10:52:05 AM 39.8819 -104.4964 354° North 173 199 11,000 -48 Level Denver Center
Wed 10:53:07 AM 39.9344 -104.4986 358° North 173 199 10,900 -290 Descending Denver Center
Wed 10:54:09 AM 39.9842 -104.5075 352° North 180 207 10,400 -532 Descending Denver Center
Wed 10:55:11 AM 40.0203 -104.5522 317° Northwest 188 216 9,800 -581 Descending Denver Center
Wed 10:56:13 AM 39.9997 -104.6203 249° West 192 221 9,200 -726 Descending Denver Center
Wed 10:57:15 AM 39.9519 -104.6536 208° Southwest 197 227 8,300 -1,200 Descending Denver Center
Wed 10:58:18 AM 39.9069 -104.6600 186° South 149 171 6,700 -1,296 Descending Denver Center
Wed 10:59:20 AM 39.8706 -104.6608 181° South 135 155 5,600 -1,065 Descending Denver Center
Wed 11:01:00 AM 39.8617 -104.6732 227° Southwest  Level Estimated

Login

Don't have an account? Register now (free) for customized features, flight alerts, and more!